Lewistown, MT

7:22 AM MDT on September 20, 2014 (GMT -0600)
RAWS JUDITH PEAK MT US | Change Station
CLOSE
Current Station
Personal Weather Station
Location: Hilger, MT
Elevation: 6428 ft
Nearby Weather Stations

Elev 6428 ft 47.22 °N, 109.22 °W | Updated 704 days ago

Clear
Clear
47 °F
Feels Like 47 °F
N
5
Wind Variable Wind from West
Gusts 8 mph

Today
High -- | Low -- °F
--% Chance of Precip.
Yesterday
High -- | Low -- °F
Precip. -- in
7:01 AM 7:18 PM
Waning Crescent, 12% visible
Pressure 30.10 in
Visibility 10.0 miles
Clouds Clear
Dew Point 44 °F
Humidity 85%
Rainfall 0.02 in
Snow Depth 1 in , 0 in , 0 in
UV 0 out of 12
Pollen 5.30 out of 12
Air Quality Not available.
Flu Activity Not available.
METAR KLWT 201154Z AUTO 27010KT 10SM CLR 09/04 A3016 RMK AO2 SLP191 T00940039 10122 20089 51016

More Conditions Fewer Conditions

Pressure 30.10 in
Visibility 10.0 miles
Clouds Clear
Dew Point 44 °F
Humidity 85%
Rainfall 0.02 in
Snow Depth 1 in , 0 in , 0 in
UV 0 out of 12
Pollen 5.30 out of 12
Air Quality Not available.
Flu Activity Not available.
METAR KLWT 201154Z AUTO 27010KT 10SM CLR 09/04 A3016 RMK AO2 SLP191 T00940039 10122 20089 51016

More Conditions Fewer Conditions

10-Day Weather Forecast

Almanac

Astronomy

Sep. 20, 2014 Rise Set
Actual Time 7:01 AM MDT 7:18 PM MDT
Civil Twilight 6:30 AM MDT 7:49 PM MDT
Nautical Twilight 5:54 AM MDT 8:24 PM MDT
Astronomical Twilight 5:17 AM MDT 9:02 PM MDT
Moon 3:32 AM MDT 5:32 PM MDT
Length of Visible Light 13h 18m
Length of Day
12h 17m
Tomorrow will be 3m 22s shorter.
Waning Crescent, 12% of the Moon is Illuminated
Today
Waning Crescent
Sep 24
New
Oct 1
First Quarter
Oct 8
Full
Oct 15
Last Quarter

Today's Extremes

State Highs State Lows

Community

WunderPhotos

Upload Photos

1,754,857 photos uploaded!

Nearby

Snow Depth

Station Depth Elevation
Porcupine 1 in 6500 ft
Spur Park 0 in 8100 ft
Northeast Entrance 0 in 7350 ft
Bloody Dick 0 in 7550 ft
Brackett Creek 0 in 7320 ft

Earthquake Activity

City Distance Mag. Time & Date
No recent earthquake activity has been reported nearby.
Minimum magnitude displayed is 2.5.

Coastal Water Temperatures

Place Temperature
No Stations Reporting

Nearby Weather Stations